LNI292 WIII-WIBB
Flight info
| Callsign | LNI292 |
|---|---|
| Flight time | 1h 18m |
| Altitude | 36000 |
| Route | GOMEL T10 OVSET |
| Aircraft | B739/M-SDE2E3FGHIRWXY/LB1 |
Departure
| Time | 2026-05-04 18:02 |
|---|---|
| Airport | Soekarno-Hatta International Airport (WIII) |
Arrival
| Time | 2026-05-04 19:21 |
|---|---|
| Airport | Sultan Syarif Kasim II International Airport / Roesmin Nurjadin AFB (WIBB) |
| Time | Latitude | Longitude | Altitude | Speed | Heading |
|---|---|---|---|---|---|
| 2026-05-04 17:44 | -6.12779 | 106.65940 | 37 ft | 0 kts | 221° |
| 2026-05-04 17:52 | -6.12770 | 106.65949 | 37 ft | 3 kts | 221° |
| 2026-05-04 17:52 | -6.12754 | 106.65962 | 37 ft | 3 kts | 221° |
| 2026-05-04 17:52 | -6.12740 | 106.65974 | 37 ft | 2 kts | 221° |
| 2026-05-04 17:52 | -6.12727 | 106.65985 | 36 ft | 3 kts | 198° |
| 2026-05-04 17:53 | -6.12711 | 106.65986 | 37 ft | 3 kts | 149° |
| 2026-05-04 17:53 | -6.12696 | 106.65974 | 35 ft | 2 kts | 131° |
| 2026-05-04 17:53 | -6.12691 | 106.65968 | 37 ft | 1 kts | 130° |
| 2026-05-04 17:53 | -6.12690 | 106.65967 | 37 ft | 0 kts | 130° |
| 2026-05-04 17:55 | -6.12696 | 106.65974 | 35 ft | 4 kts | 130° |
| 2026-05-04 17:55 | -6.12726 | 106.66011 | 37 ft | 8 kts | 128° |
| 2026-05-04 17:55 | -6.12760 | 106.66052 | 37 ft | 7 kts | 131° |
| 2026-05-04 17:56 | -6.12808 | 106.66088 | 37 ft | 11 kts | 155° |
| 2026-05-04 17:56 | -6.12898 | 106.66124 | 37 ft | 15 kts | 158° |
| 2026-05-04 17:56 | -6.12992 | 106.66161 | 37 ft | 14 kts | 158° |
| 2026-05-04 17:56 | -6.13077 | 106.66195 | 36 ft | 13 kts | 158° |
| 2026-05-04 17:57 | -6.13153 | 106.66226 | 34 ft | 8 kts | 158° |
| 2026-05-04 17:57 | -6.13186 | 106.66255 | 36 ft | 6 kts | 117° |
| 2026-05-04 17:57 | -6.13182 | 106.66298 | 37 ft | 6 kts | 69° |
| 2026-05-04 17:57 | -6.13164 | 106.66344 | 35 ft | 9 kts | 68° |
| 2026-05-04 17:58 | -6.13135 | 106.66418 | 37 ft | 14 kts | 68° |
| 2026-05-04 17:58 | -6.13093 | 106.66523 | 35 ft | 18 kts | 68° |
| 2026-05-04 17:58 | -6.13043 | 106.66648 | 37 ft | 20 kts | 68° |
| 2026-05-04 17:58 | -6.12993 | 106.66772 | 35 ft | 19 kts | 68° |
| 2026-05-04 17:59 | -6.12944 | 106.66893 | 37 ft | 18 kts | 68° |
| 2026-05-04 17:59 | -6.12897 | 106.67009 | 37 ft | 18 kts | 68° |
| 2026-05-04 17:59 | -6.12808 | 106.67229 | 37 ft | 16 kts | 70° |
| 2026-05-04 18:00 | -6.12775 | 106.67321 | 35 ft | 11 kts | 74° |
| 2026-05-04 18:00 | -6.12797 | 106.67367 | 35 ft | 8 kts | 146° |
| 2026-05-04 18:00 | -6.12844 | 106.67387 | 37 ft | 7 kts | 158° |
| 2026-05-04 18:00 | -6.12891 | 106.67407 | 38 ft | 8 kts | 158° |
| 2026-05-04 18:01 | -6.12948 | 106.67420 | 38 ft | 10 kts | 185° |
| 2026-05-04 18:01 | -6.13013 | 106.67397 | 38 ft | 8 kts | 201° |
| 2026-05-04 18:01 | -6.13052 | 106.67356 | 38 ft | 8 kts | 247° |
| 2026-05-04 18:02 | -6.13149 | 106.67116 | 38 ft | 61 kts | 248° |
| 2026-05-04 18:02 | -6.13395 | 106.66499 | 41 ft | 127 kts | 248° |
| 2026-05-04 18:02 | -6.13787 | 106.65510 | 108 ft | 170 kts | 249° |
| 2026-05-04 18:02 | -6.14234 | 106.64377 | 643 ft | 179 kts | 250° |
| 2026-05-04 18:03 | -6.14704 | 106.63192 | 1224 ft | 186 kts | 247° |
| 2026-05-04 18:03 | -6.15200 | 106.61992 | 1895 ft | 188 kts | 249° |
| 2026-05-04 18:03 | -6.15694 | 106.60682 | 2144 ft | 214 kts | 258° |
| 2026-05-04 18:03 | -6.15521 | 106.59173 | 2309 ft | 232 kts | 301° |
| 2026-05-04 18:04 | -6.14370 | 106.57992 | 2603 ft | 245 kts | 325° |
| 2026-05-04 18:04 | -6.12912 | 106.56936 | 2820 ft | 271 kts | 326° |
| 2026-05-04 18:04 | -6.09798 | 106.54668 | 4319 ft | 278 kts | 325° |
| 2026-05-04 18:05 | -6.08236 | 106.53500 | 5090 ft | 281 kts | 324° |
| 2026-05-04 18:05 | -6.06659 | 106.52304 | 5838 ft | 285 kts | 324° |
| 2026-05-04 18:05 | -6.05073 | 106.51088 | 6579 ft | 288 kts | 324° |
| 2026-05-04 18:05 | -6.03473 | 106.49853 | 7292 ft | 292 kts | 323° |
| 2026-05-04 18:06 | -6.00226 | 106.47321 | 8669 ft | 298 kts | 323° |
| 2026-05-04 18:06 | -5.98584 | 106.46035 | 9321 ft | 301 kts | 323° |
| 2026-05-04 18:06 | -5.96928 | 106.44735 | 9996 ft | 303 kts | 323° |
| 2026-05-04 18:07 | -5.95238 | 106.43406 | 10362 ft | 318 kts | 323° |
| 2026-05-04 18:07 | -5.93439 | 106.41993 | 10517 ft | 337 kts | 322° |
| 2026-05-04 18:07 | -5.91544 | 106.40502 | 10657 ft | 355 kts | 322° |
| 2026-05-04 18:07 | -5.89572 | 106.38949 | 11043 ft | 364 kts | 322° |
| 2026-05-04 18:08 | -5.87572 | 106.37373 | 11634 ft | 366 kts | 322° |
| 2026-05-04 18:08 | -5.85573 | 106.35798 | 12290 ft | 365 kts | 322° |
| 2026-05-04 18:08 | -5.83565 | 106.34217 | 12853 ft | 368 kts | 322° |
| 2026-05-04 18:08 | -5.81540 | 106.32622 | 13298 ft | 374 kts | 322° |
| 2026-05-04 18:09 | -5.77395 | 106.29357 | 14267 ft | 381 kts | 322° |
| 2026-05-04 18:09 | -5.73189 | 106.26046 | 15255 ft | 387 kts | 323° |
| 2026-05-04 18:10 | -5.71063 | 106.24372 | 15701 ft | 390 kts | 323° |
| 2026-05-04 18:10 | -5.68919 | 106.22685 | 16157 ft | 393 kts | 323° |
| 2026-05-04 18:10 | -5.66761 | 106.20987 | 16615 ft | 396 kts | 323° |
| 2026-05-04 18:10 | -5.64591 | 106.19280 | 17052 ft | 398 kts | 323° |
| 2026-05-04 18:11 | -5.62400 | 106.17555 | 17484 ft | 401 kts | 323° |
| 2026-05-04 18:11 | -5.60198 | 106.15822 | 17898 ft | 404 kts | 323° |
| 2026-05-04 18:11 | -5.57979 | 106.14077 | 18296 ft | 407 kts | 323° |
| 2026-05-04 18:11 | -5.55746 | 106.12321 | 18690 ft | 409 kts | 323° |
| 2026-05-04 18:12 | -5.53501 | 106.10554 | 19081 ft | 412 kts | 323° |
| 2026-05-04 18:12 | -5.51238 | 106.08775 | 19436 ft | 415 kts | 323° |
| 2026-05-04 18:12 | -5.48985 | 106.07004 | 19800 ft | 417 kts | 323° |
| 2026-05-04 18:12 | -5.46663 | 106.05178 | 20183 ft | 419 kts | 323° |
| 2026-05-04 18:13 | -5.44362 | 106.03369 | 20540 ft | 421 kts | 323° |
| 2026-05-04 18:13 | -5.42048 | 106.01549 | 20861 ft | 424 kts | 323° |
| 2026-05-04 18:13 | -5.37419 | 105.97909 | 20884 ft | 425 kts | 323° |
| 2026-05-04 18:14 | -5.35062 | 105.96058 | 20891 ft | 424 kts | 323° |
| 2026-05-04 18:14 | -5.32740 | 105.94233 | 20896 ft | 425 kts | 323° |
| 2026-05-04 18:14 | -5.30440 | 105.92426 | 20896 ft | 426 kts | 323° |
| 2026-05-04 18:15 | -5.25777 | 105.88762 | 20889 ft | 426 kts | 323° |
| 2026-05-04 18:15 | -5.21078 | 105.85071 | 21213 ft | 431 kts | 323° |
| 2026-05-04 18:15 | -5.18721 | 105.83219 | 21615 ft | 431 kts | 323° |
| 2026-05-04 18:16 | -5.16329 | 105.81407 | 21956 ft | 431 kts | 325° |
| 2026-05-04 18:16 | -5.13888 | 105.79658 | 22262 ft | 432 kts | 326° |
| 2026-05-04 18:16 | -5.11377 | 105.77900 | 22541 ft | 435 kts | 327° |
| 2026-05-04 18:17 | -5.06425 | 105.74438 | 23053 ft | 439 kts | 327° |
| 2026-05-04 18:17 | -5.03919 | 105.72673 | 23297 ft | 441 kts | 326° |
| 2026-05-04 18:17 | -4.98884 | 105.69106 | 23772 ft | 445 kts | 326° |
| 2026-05-04 18:18 | -4.96354 | 105.67309 | 24014 ft | 447 kts | 326° |
| 2026-05-04 18:18 | -4.93816 | 105.65503 | 24251 ft | 448 kts | 326° |
| 2026-05-04 18:18 | -4.91270 | 105.63692 | 24479 ft | 450 kts | 326° |
| 2026-05-04 18:18 | -4.88713 | 105.61872 | 24721 ft | 451 kts | 326° |
| 2026-05-04 18:19 | -4.83587 | 105.58226 | 25155 ft | 453 kts | 326° |
| 2026-05-04 18:19 | -4.81008 | 105.56395 | 25343 ft | 455 kts | 326° |
| 2026-05-04 18:19 | -4.78421 | 105.54556 | 25544 ft | 456 kts | 326° |
| 2026-05-04 18:20 | -4.75827 | 105.52712 | 25742 ft | 458 kts | 326° |
| 2026-05-04 18:20 | -4.73233 | 105.50868 | 25954 ft | 459 kts | 326° |
| 2026-05-04 18:20 | -4.70623 | 105.49013 | 26142 ft | 460 kts | 326° |
| 2026-05-04 18:20 | -4.68016 | 105.47160 | 26339 ft | 461 kts | 326° |
| 2026-05-04 18:21 | -4.65396 | 105.45300 | 26498 ft | 462 kts | 326° |
| 2026-05-04 18:21 | -4.62772 | 105.43435 | 26659 ft | 463 kts | 326° |
| 2026-05-04 18:21 | -4.60139 | 105.41564 | 26845 ft | 464 kts | 326° |
| 2026-05-04 18:21 | -4.57499 | 105.39688 | 27030 ft | 465 kts | 326° |
| 2026-05-04 18:22 | -4.54860 | 105.37814 | 27210 ft | 466 kts | 326° |
| 2026-05-04 18:22 | -4.52217 | 105.35936 | 27367 ft | 467 kts | 326° |
| 2026-05-04 18:22 | -4.49564 | 105.34052 | 27535 ft | 468 kts | 326° |
| 2026-05-04 18:22 | -4.46903 | 105.32163 | 27698 ft | 469 kts | 326° |
| 2026-05-04 18:23 | -4.44235 | 105.30269 | 27857 ft | 470 kts | 326° |
| 2026-05-04 18:23 | -4.41566 | 105.28374 | 28019 ft | 471 kts | 326° |
| 2026-05-04 18:23 | -4.38897 | 105.26479 | 28182 ft | 471 kts | 326° |
| 2026-05-04 18:23 | -4.36220 | 105.24578 | 28323 ft | 472 kts | 326° |
| 2026-05-04 18:24 | -4.33533 | 105.22671 | 28459 ft | 473 kts | 326° |
| 2026-05-04 18:24 | -4.30846 | 105.20765 | 28610 ft | 474 kts | 326° |
| 2026-05-04 18:24 | -4.28147 | 105.18850 | 28754 ft | 475 kts | 326° |
| 2026-05-04 18:24 | -4.25455 | 105.16939 | 28884 ft | 476 kts | 326° |
| 2026-05-04 18:25 | -4.22748 | 105.15018 | 29013 ft | 477 kts | 326° |
| 2026-05-04 18:25 | -4.20041 | 105.13097 | 29149 ft | 478 kts | 326° |
| 2026-05-04 18:25 | -4.17326 | 105.11170 | 29292 ft | 478 kts | 326° |
| 2026-05-04 18:25 | -4.14612 | 105.09244 | 29427 ft | 479 kts | 326° |
| 2026-05-04 18:26 | -4.11890 | 105.07314 | 29558 ft | 479 kts | 326° |
| 2026-05-04 18:26 | -4.10096 | 105.06029 | 29646 ft | 480 kts | 324° |
| 2026-05-04 18:26 | -4.07516 | 105.03888 | 29765 ft | 482 kts | 319° |
| 2026-05-04 18:26 | -4.05052 | 105.01608 | 29893 ft | 483 kts | 317° |
| 2026-05-04 18:27 | -4.02626 | 104.99287 | 30018 ft | 483 kts | 317° |
| 2026-05-04 18:27 | -4.00226 | 104.96971 | 30600 ft | 472 kts | 317° |
| 2026-05-04 18:27 | -3.97892 | 104.94727 | 31375 ft | 459 kts | 317° |
| 2026-05-04 18:27 | -3.95612 | 104.92553 | 32010 ft | 450 kts | 317° |
| 2026-05-04 18:28 | -3.93334 | 104.90401 | 32287 ft | 450 kts | 317° |
| 2026-05-04 18:28 | -3.91041 | 104.88248 | 32400 ft | 454 kts | 317° |
| 2026-05-04 18:28 | -3.88724 | 104.86080 | 32534 ft | 457 kts | 317° |
| 2026-05-04 18:28 | -3.86396 | 104.83904 | 32732 ft | 458 kts | 317° |
| 2026-05-04 18:29 | -3.84066 | 104.81726 | 32951 ft | 459 kts | 317° |
| 2026-05-04 18:29 | -3.81733 | 104.79544 | 33168 ft | 460 kts | 317° |
| 2026-05-04 18:29 | -3.79388 | 104.77353 | 33338 ft | 461 kts | 317° |
| 2026-05-04 18:29 | -3.77040 | 104.75157 | 33511 ft | 463 kts | 317° |
| 2026-05-04 18:30 | -3.72325 | 104.70748 | 33913 ft | 464 kts | 317° |
| 2026-05-04 18:30 | -3.69962 | 104.68538 | 34080 ft | 465 kts | 317° |
| 2026-05-04 18:30 | -3.67597 | 104.66326 | 34236 ft | 467 kts | 317° |
| 2026-05-04 18:31 | -3.65217 | 104.64102 | 34423 ft | 468 kts | 317° |
| 2026-05-04 18:31 | -3.62839 | 104.61879 | 34685 ft | 466 kts | 317° |
| 2026-05-04 18:31 | -3.60473 | 104.59667 | 34949 ft | 465 kts | 317° |
| 2026-05-04 18:31 | -3.58112 | 104.57460 | 35136 ft | 465 kts | 317° |
| 2026-05-04 18:32 | -3.55747 | 104.55249 | 35329 ft | 465 kts | 317° |
| 2026-05-04 18:32 | -3.53389 | 104.53045 | 35565 ft | 463 kts | 317° |
| 2026-05-04 18:32 | -3.51036 | 104.50846 | 35758 ft | 463 kts | 317° |
| 2026-05-04 18:32 | -3.48683 | 104.48647 | 35865 ft | 464 kts | 317° |
| 2026-05-04 18:33 | -3.46322 | 104.46440 | 35890 ft | 465 kts | 317° |
| 2026-05-04 18:33 | -3.41579 | 104.42009 | 35900 ft | 468 kts | 317° |
| 2026-05-04 18:34 | -3.36810 | 104.37548 | 35888 ft | 470 kts | 317° |
| 2026-05-04 18:34 | -3.32025 | 104.33083 | 35892 ft | 471 kts | 317° |
| 2026-05-04 18:35 | -3.27267 | 104.28641 | 35887 ft | 471 kts | 317° |
| 2026-05-04 18:35 | -3.22449 | 104.24143 | 35889 ft | 470 kts | 317° |
| 2026-05-04 18:36 | -3.17704 | 104.19712 | 35886 ft | 469 kts | 317° |
| 2026-05-04 18:36 | -3.12937 | 104.15258 | 35888 ft | 469 kts | 317° |
| 2026-05-04 18:37 | -3.08171 | 104.10812 | 35888 ft | 467 kts | 317° |
| 2026-05-04 18:37 | -3.03422 | 104.06381 | 35888 ft | 466 kts | 317° |
| 2026-05-04 18:38 | -2.98679 | 104.01952 | 35891 ft | 466 kts | 317° |
| 2026-05-04 18:38 | -2.93935 | 103.97527 | 35889 ft | 466 kts | 317° |
| 2026-05-04 18:39 | -2.89200 | 103.93109 | 35890 ft | 466 kts | 317° |
| 2026-05-04 18:39 | -2.84459 | 103.88685 | 35890 ft | 466 kts | 317° |
| 2026-05-04 18:40 | -2.79711 | 103.84258 | 35881 ft | 467 kts | 317° |
| 2026-05-04 18:40 | -2.74956 | 103.79823 | 35885 ft | 468 kts | 317° |
| 2026-05-04 18:41 | -2.70183 | 103.75373 | 35880 ft | 469 kts | 317° |
| 2026-05-04 18:41 | -2.65407 | 103.70918 | 35866 ft | 470 kts | 317° |
| 2026-05-04 18:42 | -2.60616 | 103.66451 | 35888 ft | 471 kts | 317° |
| 2026-05-04 18:42 | -2.55814 | 103.61975 | 35881 ft | 472 kts | 317° |
| 2026-05-04 18:43 | -2.51013 | 103.57499 | 35877 ft | 472 kts | 317° |
| 2026-05-04 18:43 | -2.46211 | 103.53022 | 35870 ft | 472 kts | 317° |
| 2026-05-04 18:44 | -2.41410 | 103.48547 | 35886 ft | 471 kts | 317° |
| 2026-05-04 18:44 | -2.36619 | 103.44081 | 35882 ft | 471 kts | 317° |
| 2026-05-04 18:45 | -2.31831 | 103.39619 | 35863 ft | 470 kts | 317° |
| 2026-05-04 18:45 | -2.27058 | 103.35165 | 35884 ft | 469 kts | 317° |
| 2026-05-04 18:46 | -2.22291 | 103.30713 | 35877 ft | 469 kts | 317° |
| 2026-05-04 18:46 | -2.17523 | 103.26259 | 35880 ft | 469 kts | 317° |
| 2026-05-04 18:47 | -2.12793 | 103.21841 | 35885 ft | 469 kts | 317° |
| 2026-05-04 18:47 | -2.08024 | 103.17390 | 35875 ft | 469 kts | 317° |
| 2026-05-04 18:48 | -2.03256 | 103.12939 | 35882 ft | 469 kts | 317° |
| 2026-05-04 18:48 | -1.98484 | 103.08486 | 35882 ft | 469 kts | 317° |
| 2026-05-04 18:49 | -1.93708 | 103.04026 | 35884 ft | 470 kts | 317° |
| 2026-05-04 18:49 | -1.88919 | 102.99556 | 35881 ft | 472 kts | 317° |
| 2026-05-04 18:50 | -1.84119 | 102.95077 | 35882 ft | 472 kts | 317° |
| 2026-05-04 18:50 | -1.79325 | 102.90603 | 35883 ft | 472 kts | 317° |
| 2026-05-04 18:51 | -1.74529 | 102.86127 | 35877 ft | 472 kts | 317° |
| 2026-05-04 18:51 | -1.69726 | 102.81643 | 35883 ft | 472 kts | 317° |
| 2026-05-04 18:52 | -1.64924 | 102.77165 | 35884 ft | 472 kts | 317° |
| 2026-05-04 18:52 | -1.60120 | 102.72679 | 35868 ft | 473 kts | 317° |
| 2026-05-04 18:53 | -1.54924 | 102.68752 | 35881 ft | 468 kts | 339° |
| 2026-05-04 18:53 | -1.48724 | 102.66855 | 35885 ft | 466 kts | 345° |
| 2026-05-04 18:54 | -1.42466 | 102.65110 | 35866 ft | 467 kts | 345° |
| 2026-05-04 18:54 | -1.36215 | 102.63317 | 35878 ft | 468 kts | 345° |
| 2026-05-04 18:55 | -1.29957 | 102.61481 | 35542 ft | 475 kts | 344° |
| 2026-05-04 18:55 | -1.23553 | 102.59590 | 34069 ft | 480 kts | 344° |
| 2026-05-04 18:55 | -1.20359 | 102.58645 | 33442 ft | 477 kts | 344° |
| 2026-05-04 18:56 | -1.17190 | 102.57709 | 32896 ft | 472 kts | 344° |
| 2026-05-04 18:56 | -1.14052 | 102.56782 | 32329 ft | 468 kts | 344° |
| 2026-05-04 18:56 | -1.10944 | 102.55865 | 31783 ft | 464 kts | 344° |
| 2026-05-04 18:56 | -1.07864 | 102.54957 | 31236 ft | 460 kts | 345° |
| 2026-05-04 18:57 | -1.04809 | 102.54056 | 30691 ft | 455 kts | 345° |
| 2026-05-04 18:57 | -1.01785 | 102.53165 | 30158 ft | 451 kts | 345° |
| 2026-05-04 18:57 | -0.98789 | 102.52282 | 29623 ft | 447 kts | 345° |
| 2026-05-04 18:57 | -0.95855 | 102.51417 | 29099 ft | 443 kts | 345° |
| 2026-05-04 18:58 | -0.92909 | 102.50548 | 28570 ft | 440 kts | 345° |
| 2026-05-04 18:58 | -0.89988 | 102.49687 | 28043 ft | 436 kts | 345° |
| 2026-05-04 18:58 | -0.87089 | 102.48832 | 27519 ft | 432 kts | 345° |
| 2026-05-04 18:58 | -0.84218 | 102.47984 | 26997 ft | 429 kts | 345° |
| 2026-05-04 18:59 | -0.81364 | 102.47142 | 26479 ft | 425 kts | 345° |
| 2026-05-04 18:59 | -0.78538 | 102.46309 | 25970 ft | 422 kts | 345° |
| 2026-05-04 18:59 | -0.75736 | 102.45483 | 25465 ft | 418 kts | 345° |
| 2026-05-04 18:59 | -0.72953 | 102.44663 | 24946 ft | 416 kts | 345° |
| 2026-05-04 19:00 | -0.70190 | 102.43850 | 24450 ft | 412 kts | 345° |
| 2026-05-04 19:00 | -0.67452 | 102.43042 | 23943 ft | 409 kts | 345° |
| 2026-05-04 19:00 | -0.64731 | 102.42239 | 23452 ft | 406 kts | 345° |
| 2026-05-04 19:00 | -0.62043 | 102.41444 | 22959 ft | 402 kts | 345° |
| 2026-05-04 19:01 | -0.59375 | 102.40655 | 22459 ft | 399 kts | 345° |
| 2026-05-04 19:01 | -0.56727 | 102.39827 | 21963 ft | 398 kts | 338° |
| 2026-05-04 19:01 | -0.54437 | 102.38318 | 21528 ft | 395 kts | 319° |
| 2026-05-04 19:01 | -0.52468 | 102.36425 | 21100 ft | 391 kts | 316° |
| 2026-05-04 19:02 | -0.50537 | 102.34523 | 20672 ft | 388 kts | 316° |
| 2026-05-04 19:02 | -0.48628 | 102.32635 | 20247 ft | 384 kts | 317° |
| 2026-05-04 19:02 | -0.46733 | 102.30774 | 19820 ft | 380 kts | 316° |
| 2026-05-04 19:02 | -0.44854 | 102.28926 | 19398 ft | 378 kts | 317° |
| 2026-05-04 19:03 | -0.42977 | 102.27095 | 18989 ft | 377 kts | 317° |
| 2026-05-04 19:03 | -0.41115 | 102.25278 | 18582 ft | 372 kts | 317° |
| 2026-05-04 19:03 | -0.39256 | 102.23484 | 18173 ft | 370 kts | 317° |
| 2026-05-04 19:03 | -0.37407 | 102.21687 | 17759 ft | 371 kts | 317° |
| 2026-05-04 19:04 | -0.35565 | 102.19909 | 17344 ft | 368 kts | 317° |
| 2026-05-04 19:04 | -0.33739 | 102.18128 | 16946 ft | 366 kts | 317° |
| 2026-05-04 19:04 | -0.31923 | 102.16361 | 16546 ft | 364 kts | 317° |
| 2026-05-04 19:04 | -0.30115 | 102.14605 | 16147 ft | 361 kts | 317° |
| 2026-05-04 19:05 | -0.28316 | 102.12859 | 15751 ft | 359 kts | 316° |
| 2026-05-04 19:05 | -0.26529 | 102.11129 | 15373 ft | 356 kts | 317° |
| 2026-05-04 19:05 | -0.24754 | 102.09413 | 14998 ft | 354 kts | 316° |
| 2026-05-04 19:05 | -0.22993 | 102.07710 | 14633 ft | 351 kts | 316° |
| 2026-05-04 19:06 | -0.21246 | 102.06020 | 14265 ft | 349 kts | 316° |
| 2026-05-04 19:06 | -0.19512 | 102.04342 | 13888 ft | 346 kts | 316° |
| 2026-05-04 19:06 | -0.17789 | 102.02675 | 13527 ft | 344 kts | 316° |
| 2026-05-04 19:06 | -0.16076 | 102.01018 | 13156 ft | 341 kts | 316° |
| 2026-05-04 19:07 | -0.14379 | 101.99375 | 12794 ft | 339 kts | 316° |
| 2026-05-04 19:07 | -0.12688 | 101.97738 | 12438 ft | 337 kts | 316° |
| 2026-05-04 19:07 | -0.11011 | 101.96116 | 12086 ft | 335 kts | 316° |
| 2026-05-04 19:07 | -0.09343 | 101.94501 | 11727 ft | 333 kts | 316° |
| 2026-05-04 19:08 | -0.07705 | 101.92915 | 11377 ft | 331 kts | 316° |
| 2026-05-04 19:08 | -0.06058 | 101.91319 | 11019 ft | 329 kts | 316° |
| 2026-05-04 19:08 | -0.04423 | 101.89734 | 10658 ft | 326 kts | 316° |
| 2026-05-04 19:08 | -0.02801 | 101.88163 | 10320 ft | 322 kts | 316° |
| 2026-05-04 19:09 | -0.01201 | 101.86613 | 9979 ft | 319 kts | 316° |
| 2026-05-04 19:09 | 0.00376 | 101.85084 | 9772 ft | 310 kts | 316° |
| 2026-05-04 19:09 | 0.01884 | 101.83622 | 9765 ft | 294 kts | 316° |
| 2026-05-04 19:09 | 0.03316 | 101.82233 | 9541 ft | 282 kts | 316° |
| 2026-05-04 19:10 | 0.04700 | 101.80892 | 9276 ft | 275 kts | 316° |
| 2026-05-04 19:10 | 0.06069 | 101.79566 | 9034 ft | 273 kts | 316° |
| 2026-05-04 19:10 | 0.07434 | 101.78242 | 8781 ft | 276 kts | 316° |
| 2026-05-04 19:10 | 0.08803 | 101.76878 | 8522 ft | 279 kts | 309° |
| 2026-05-04 19:11 | 0.09737 | 101.75197 | 8276 ft | 277 kts | 292° |
| 2026-05-04 19:11 | 0.10472 | 101.73410 | 8023 ft | 280 kts | 292° |
| 2026-05-04 19:11 | 0.11170 | 101.71590 | 7832 ft | 281 kts | 288° |
| 2026-05-04 19:11 | 0.11729 | 101.69721 | 7506 ft | 280 kts | 286° |
| 2026-05-04 19:12 | 0.12244 | 101.67864 | 7258 ft | 275 kts | 286° |
| 2026-05-04 19:12 | 0.13260 | 101.64231 | 6764 ft | 269 kts | 286° |
| 2026-05-04 19:12 | 0.13597 | 101.63046 | 6600 ft | 267 kts | 287° |
| 2026-05-04 19:13 | 0.14279 | 101.60671 | 6278 ft | 265 kts | 287° |
| 2026-05-04 19:13 | 0.14788 | 101.58905 | 6036 ft | 263 kts | 287° |
| 2026-05-04 19:13 | 0.15123 | 101.57746 | 5880 ft | 262 kts | 287° |
| 2026-05-04 19:13 | 0.15631 | 101.56000 | 5643 ft | 262 kts | 287° |
| 2026-05-04 19:14 | 0.16138 | 101.54258 | 5395 ft | 262 kts | 287° |
| 2026-05-04 19:14 | 0.16645 | 101.52512 | 5166 ft | 262 kts | 287° |
| 2026-05-04 19:14 | 0.17154 | 101.50764 | 4928 ft | 262 kts | 287° |
| 2026-05-04 19:14 | 0.17661 | 101.49018 | 4684 ft | 261 kts | 287° |
| 2026-05-04 19:15 | 0.18168 | 101.47280 | 4451 ft | 260 kts | 287° |
| 2026-05-04 19:15 | 0.18660 | 101.45598 | 4386 ft | 243 kts | 287° |
| 2026-05-04 19:15 | 0.19761 | 101.43791 | 4175 ft | 222 kts | 330° |
| 2026-05-04 19:15 | 0.20693 | 101.43463 | 4086 ft | 212 kts | 356° |
| 2026-05-04 19:16 | 0.22162 | 101.43606 | 3683 ft | 212 kts | 8° |
| 2026-05-04 19:16 | 0.23610 | 101.43746 | 3397 ft | 207 kts | 4° |
| 2026-05-04 19:16 | 0.25020 | 101.43820 | 3204 ft | 200 kts | 2° |
| 2026-05-04 19:16 | 0.26374 | 101.43875 | 3046 ft | 188 kts | 2° |
| 2026-05-04 19:17 | 0.27673 | 101.43919 | 2995 ft | 185 kts | 2° |
| 2026-05-04 19:17 | 0.28950 | 101.43960 | 2976 ft | 182 kts | 2° |
| 2026-05-04 19:17 | 0.30193 | 101.43995 | 2914 ft | 176 kts | 2° |
| 2026-05-04 19:17 | 0.31423 | 101.44031 | 2703 ft | 178 kts | 2° |
| 2026-05-04 19:18 | 0.32656 | 101.44067 | 2471 ft | 176 kts | 2° |
| 2026-05-04 19:18 | 0.33864 | 101.44099 | 2263 ft | 167 kts | 2° |
| 2026-05-04 19:18 | 0.34990 | 101.44131 | 2010 ft | 156 kts | 2° |
| 2026-05-04 19:18 | 0.36066 | 101.44164 | 1834 ft | 157 kts | 2° |
| 2026-05-04 19:19 | 0.37153 | 101.44196 | 1616 ft | 154 kts | 2° |
| 2026-05-04 19:19 | 0.38200 | 101.44225 | 1405 ft | 152 kts | 2° |
| 2026-05-04 19:19 | 0.39262 | 101.44256 | 1220 ft | 154 kts | 2° |
| 2026-05-04 19:19 | 0.40335 | 101.44287 | 1010 ft | 154 kts | 2° |
| 2026-05-04 19:20 | 0.41422 | 101.44318 | 814 ft | 159 kts | 1° |
| 2026-05-04 19:20 | 0.42521 | 101.44349 | 591 ft | 157 kts | 1° |
| 2026-05-04 19:20 | 0.43603 | 101.44383 | 386 ft | 154 kts | 1° |
| 2026-05-04 19:20 | 0.44666 | 101.44411 | 179 ft | 153 kts | 1° |
| 2026-05-04 19:21 | 0.45682 | 101.44441 | 130 ft | 132 kts | 1° |
| 2026-05-04 19:21 | 0.46426 | 101.44462 | 126 ft | 66 kts | 1° |
| 2026-05-04 19:21 | 0.46589 | 101.44468 | 134 ft | 8 kts | 3° |
| 2026-05-04 19:21 | 0.46630 | 101.44500 | 128 ft | 8 kts | 76° |
| 2026-05-04 19:22 | 0.46630 | 101.44558 | 125 ft | 8 kts | 92° |
| 2026-05-04 19:22 | 0.46611 | 101.44592 | 132 ft | 6 kts | 155° |
| 2026-05-04 19:22 | 0.46572 | 101.44595 | 127 ft | 6 kts | 181° |
| 2026-05-04 19:22 | 0.46534 | 101.44594 | 124 ft | 5 kts | 181° |
| 2026-05-04 19:23 | 0.46497 | 101.44597 | 127 ft | 5 kts | 153° |
| 2026-05-04 19:23 | 0.46483 | 101.44626 | 127 ft | 4 kts | 101° |
| 2026-05-04 19:23 | 0.46481 | 101.44656 | 125 ft | 4 kts | 92° |
| 2026-05-04 19:23 | 0.46481 | 101.44674 | 126 ft | 2 kts | 91° |
| 2026-05-04 19:24 | 0.46481 | 101.44678 | 128 ft | 0 kts | 91° |